Time;durP1;ratioP1;P1;durP2;ratioP2;P2;SDS_P1;SDS_P2;PMS_P1;PMS_P2;Temp;Humidity;BMP_temperature;BMP_pressure;BME280_temperature;BME280_humidity;BME280_pressure;Samples;Min_cycle;Max_cycle;Signal;HPM_P1;HPM_P2
2021/08/17 00:00:43;;;;;;;8.10;7.25;;;28.90;38.90;;;;;;5052745;28;20046;-60
2021/08/17 00:03:10;;;;;;;7.28;6.55;;;28.90;38.90;;;;;;5058590;28;20137;-60
2021/08/17 00:05:38;;;;;;;7.97;7.20;;;28.90;38.90;;;;;;5062460;28;20033;-60
2021/08/17 00:08:06;;;;;;;9.35;6.93;;;28.90;38.90;;;;;;5064024;28;20047;-58
2021/08/17 00:10:33;;;;;;;7.47;6.75;;;28.90;38.90;;;;;;5059658;28;20049;-60
2021/08/17 00:13:00;;;;;;;7.75;6.68;;;28.90;39.00;;;;;;5057588;28;20041;-61
2021/08/17 00:15:29;;;;;;;7.97;6.80;;;28.80;38.90;;;;;;5058443;28;20405;-60
2021/08/17 00:17:56;;;;;;;8.18;6.22;;;28.80;38.90;;;;;;5051755;28;20125;-60
2021/08/17 00:20:24;;;;;;;8.30;7.25;;;28.80;38.90;;;;;;5062759;28;20055;-60
2021/08/17 00:22:51;;;;;;;7.38;6.65;;;28.80;39.00;;;;;;5063293;28;20033;-60
2021/08/17 00:25:18;;;;;;;7.88;7.07;;;28.80;39.00;;;;;;5058250;28;20585;-61
2021/08/17 00:27:46;;;;;;;8.18;7.35;;;28.80;39.00;;;;;;5058635;28;20119;-59
2021/08/17 00:30:14;;;;;;;7.40;6.55;;;28.80;39.10;;;;;;5058229;28;20395;-60
2021/08/17 00:32:42;;;;;;;9.30;6.65;;;28.80;39.10;;;;;;5061654;28;20037;-60
2021/08/17 00:35:10;;;;;;;7.00;6.22;;;28.80;39.10;;;;;;5063375;28;20128;-61
2021/08/17 00:37:37;;;;;;;8.88;6.78;;;28.80;39.10;;;;;;5048493;28;20063;-60
2021/08/17 00:40:05;;;;;;;7.00;6.32;;;28.80;39.10;;;;;;5055545;28;20086;-60
2021/08/17 00:42:38;;;;;;;6.78;6.15;;;28.80;39.20;;;;;;5057453;28;20032;-60
2021/08/17 00:45:06;;;;;;;7.45;6.53;;;28.70;39.20;;;;;;5058528;28;20475;-61
2021/08/17 00:47:33;;;;;;;9.40;6.28;;;28.70;39.70;;;;;;5061102;28;20039;-60
2021/08/17 00:50:01;;;;;;;6.68;5.95;;;28.70;39.20;;;;;;5064228;28;20064;-60
2021/08/17 00:52:28;;;;;;;6.65;6.03;;;28.70;39.20;;;;;;5058997;28;20501;-59
2021/08/17 00:54:56;;;;;;;6.53;5.90;;;28.70;39.20;;;;;;5055391;28;20135;-61
2021/08/17 00:57:23;;;;;;;5.95;5.43;;;28.70;39.30;;;;;;5049793;28;20533;-60
2021/08/17 00:59:50;;;;;;;5.70;5.22;;;28.70;39.30;;;;;;5060372;28;20051;-60
2021/08/17 01:02:17;;;;;;;6.25;5.65;;;28.70;39.30;;;;;;5066616;28;20095;-60
2021/08/17 01:04:44;;;;;;;8.68;6.10;;;28.70;39.30;;;;;;5065918;28;20045;-60
2021/08/17 01:07:13;;;;;;;6.18;5.53;;;28.70;39.30;;;;;;5061710;28;20110;-60
2021/08/17 01:09:41;;;;;;;6.03;5.13;;;28.70;39.90;;;;;;5061662;28;20052;-61
2021/08/17 01:12:09;;;;;;;7.00;6.25;;;28.70;39.40;;;;;;5060792;28;20037;-60
2021/08/17 01:14:37;;;;;;;6.38;5.57;;;28.70;39.40;;;;;;5065765;28;20136;-60
2021/08/17 01:17:04;;;;;;;7.10;6.07;;;28.60;39.30;;;;;;5067066;28;20040;-61
2021/08/17 01:19:32;;;;;;;6.43;5.75;;;28.60;39.30;;;;;;5061990;28;20047;-61
2021/08/17 01:21:59;;;;;;;6.88;5.63;;;28.60;39.30;;;;;;5053847;28;20037;-59
2021/08/17 01:24:28;;;;;;;7.05;6.40;;;28.60;39.40;;;;;;5053430;28;20040;-60
2021/08/17 01:26:56;;;;;;;6.15;5.35;;;28.60;39.40;;;;;;5062433;28;20048;-59
2021/08/17 01:29:24;;;;;;;6.80;5.63;;;28.60;39.40;;;;;;5066043;28;20063;-60
2021/08/17 01:31:51;;;;;;;6.57;5.32;;;28.60;39.40;;;;;;5058338;28;20044;-60
2021/08/17 01:34:18;;;;;;;5.90;5.18;;;28.60;39.50;;;;;;5060343;28;20587;-61
2021/08/17 01:36:46;;;;;;;5.40;4.90;;;28.60;39.50;;;;;;5061248;28;20127;-60
2021/08/17 01:39:13;;;;;;;9.18;6.32;;;28.60;39.50;;;;;;5059742;28;20045;-60
2021/08/17 01:41:40;;;;;;;6.07;4.75;;;28.60;39.50;;;;;;5050133;28;20099;-60
2021/08/17 01:44:09;;;;;;;6.22;5.63;;;28.50;39.50;;;;;;5066427;28;20041;-59
2021/08/17 01:46:37;;;;;;;5.55;4.45;;;28.50;39.50;;;;;;5063196;28;20048;-61
2021/08/17 01:49:04;;;;;;;6.25;5.70;;;28.50;39.50;;;;;;5065931;28;20123;-60
2021/08/17 01:51:31;;;;;;;5.13;4.55;;;28.50;39.50;;;;;;5056987;28;20068;-61
2021/08/17 01:53:59;;;;;;;5.47;4.97;;;28.50;39.60;;;;;;5049363;28;20785;-60
2021/08/17 01:56:26;;;;;;;4.78;4.35;;;28.50;39.60;;;;;;5050164;28;20536;-61
2021/08/17 01:58:53;;;;;;;7.20;4.75;;;28.50;39.60;;;;;;5065891;28;20123;-61
2021/08/17 02:01:25;;;;;;;6.10;4.85;;;28.50;39.60;;;;;;5060528;28;20131;-60
2021/08/17 02:03:52;;;;;;;5.35;4.85;;;28.50;39.60;;;;;;5058521;28;20541;-57
2021/08/17 02:06:19;;;;;;;4.35;4.03;;;28.50;39.60;;;;;;5053905;28;20041;-60
2021/08/17 02:08:46;;;;;;;5.53;4.78;;;28.40;39.60;;;;;;5051444;28;20045;-60
2021/08/17 02:11:13;;;;;;;5.00;4.60;;;28.40;39.60;;;;;;5051342;28;20041;-61
2021/08/17 02:13:40;;;;;;;5.65;5.15;;;28.40;39.60;;;;;;5063500;28;20415;-60
2021/08/17 02:16:09;;;;;;;4.60;4.20;;;28.40;39.60;;;;;;5060369;28;20048;-60
2021/08/17 02:18:37;;;;;;;4.40;3.95;;;28.40;39.60;;;;;;5060258;28;20496;-59
2021/08/17 02:21:05;;;;;;;4.50;3.97;;;28.40;39.60;;;;;;5059892;28;20127;-60
2021/08/17 02:23:32;;;;;;;4.82;4.35;;;28.40;39.70;;;;;;5064794;28;20041;-61
2021/08/17 02:26:00;;;;;;;5.60;5.15;;;28.40;39.70;;;;;;5054625;28;20049;-61
2021/08/17 02:28:27;;;;;;;4.63;4.15;;;28.40;39.70;;;;;;5060705;28;20127;-60
2021/08/17 02:30:54;;;;;;;5.50;4.63;;;28.40;39.70;;;;;;5060170;28;20541;-60
2021/08/17 02:33:21;;;;;;;4.70;4.38;;;28.30;39.70;;;;;;5057486;28;20040;-60
2021/08/17 02:35:50;;;;;;;5.75;4.35;;;28.30;39.70;;;;;;5051896;28;20049;-60
2021/08/17 02:38:17;;;;;;;5.82;3.83;;;28.30;39.70;;;;;;5050433;28;20132;-58
2021/08/17 02:40:44;;;;;;;4.45;4.07;;;28.40;39.80;;;;;;5064076;28;20139;-62
2021/08/17 02:43:11;;;;;;;5.55;4.65;;;28.40;39.80;;;;;;5058928;28;20045;-60
2021/08/17 02:45:38;;;;;;;6.85;3.97;;;28.30;39.70;;;;;;5060023;28;20044;-59
2021/08/17 02:48:06;;;;;;;5.13;4.20;;;28.30;39.80;;;;;;5059658;28;20036;-60
2021/08/17 02:50:33;;;;;;;4.57;3.78;;;28.30;39.80;;;;;;5063879;28;20768;-60
2021/08/17 02:53:02;;;;;;;5.00;4.60;;;28.30;39.80;;;;;;5066232;28;20047;-60
2021/08/17 02:55:29;;;;;;;4.82;4.43;;;28.30;39.80;;;;;;5053703;28;20048;-60
2021/08/17 02:57:59;;;;;;;5.30;3.55;;;28.30;39.90;;;;;;5055438;28;20124;-60
2021/08/17 03:00:26;;;;;;;4.43;3.47;;;28.30;39.90;;;;;;5059810;28;20036;-60
2021/08/17 03:02:53;;;;;;;6.75;4.22;;;28.30;39.90;;;;;;5060891;28;20115;-61
2021/08/17 03:05:20;;;;;;;5.75;2.97;;;28.30;39.90;;;;;;5064570;28;20045;-60
2021/08/17 03:07:52;;;;;;;3.95;3.65;;;28.20;39.80;;;;;;5063888;28;20131;-60
2021/08/17 03:10:21;;;;;;;4.53;3.97;;;28.30;39.90;;;;;;5059125;28;20390;-60
2021/08/17 03:12:49;;;;;;;3.33;3.13;;;28.20;39.80;;;;;;5057948;28;20066;-60
2021/08/17 03:15:16;;;;;;;4.18;3.65;;;28.20;39.90;;;;;;5059517;28;20100;-60
2021/08/17 03:17:44;;;;;;;4.35;3.95;;;28.20;39.80;;;;;;5062056;28;20071;-61
2021/08/17 03:20:13;;;;;;;7.95;4.15;;;28.20;39.90;;;;;;5064466;28;20141;-60
2021/08/17 03:22:41;;;;;;;4.28;3.83;;;28.20;39.90;;;;;;5053089;28;20047;-60
2021/08/17 03:25:10;;;;;;;4.07;3.75;;;28.20;39.90;;;;;;5052425;28;20041;-58
2021/08/17 03:27:39;;;;;;;3.88;3.60;;;28.20;40.00;;;;;;5052657;28;20048;-61
2021/08/17 03:30:09;;;;;;;5.10;4.13;;;28.20;40.00;;;;;;5058802;28;20838;-59
2021/08/17 03:32:36;;;;;;;4.00;3.65;;;28.20;40.00;;;;;;5048651;28;20056;-59
2021/08/17 03:35:03;;;;;;;4.68;4.25;;;28.10;39.90;;;;;;5052040;28;20124;-61
2021/08/17 03:37:32;;;;;;;4.05;3.47;;;28.20;40.00;;;;;;5059496;28;20090;-60
2021/08/17 03:39:59;;;;;;;5.28;2.80;;;28.10;39.90;;;;;;5055902;28;20040;-60
2021/08/17 03:42:29;;;;;;;4.45;3.35;;;28.10;40.50;;;;;;5052194;28;20053;-60
2021/08/17 03:44:57;;;;;;;3.72;2.72;;;28.10;40.00;;;;;;5047721;28;20457;-60
2021/08/17 03:47:25;;;;;;;5.00;4.03;;;28.20;40.10;;;;;;5063653;28;20621;-59
2021/08/17 03:49:52;;;;;;;4.13;3.72;;;28.10;40.00;;;;;;5053703;28;20441;-61
2021/08/17 03:52:19;;;;;;;3.83;3.50;;;28.10;40.00;;;;;;5051968;28;20071;-60
2021/08/17 03:54:46;;;;;;;3.70;3.40;;;28.10;40.00;;;;;;5053145;28;20779;-60
2021/08/17 03:57:13;;;;;;;4.57;3.53;;;28.10;40.00;;;;;;5058737;28;20501;-60
2021/08/17 03:59:40;;;;;;;2.95;2.72;;;28.10;40.00;;;;;;5062233;28;20143;-60
2021/08/17 04:02:09;;;;;;;4.28;3.90;;;28.10;40.10;;;;;;5063906;28;20040;-60
2021/08/17 04:04:36;;;;;;;3.45;3.15;;;28.10;40.10;;;;;;5061342;28;20032;-61
2021/08/17 04:07:03;;;;;;;3.70;3.35;;;28.10;40.10;;;;;;5058463;28;20048;-58
2021/08/17 04:09:30;;;;;;;5.10;3.30;;;28.10;40.10;;;;;;5059288;28;20036;-57
2021/08/17 04:11:58;;;;;;;3.25;3.00;;;28.00;40.10;;;;;;5047287;28;20434;-60
2021/08/17 04:14:25;;;;;;;3.55;3.05;;;28.10;40.10;;;;;;5063714;28;20049;-60
2021/08/17 04:16:52;;;;;;;3.38;2.67;;;28.00;40.10;;;;;;5052834;28;20072;-60
2021/08/17 04:19:20;;;;;;;3.15;2.95;;;28.00;40.10;;;;;;5057375;28;20032;-61
2021/08/17 04:21:47;;;;;;;3.75;3.42;;;28.00;40.10;;;;;;5058318;28;20128;-60
2021/08/17 04:24:14;;;;;;;3.50;3.20;;;28.00;40.10;;;;;;5058324;28;20065;-59
2021/08/17 04:26:41;;;;;;;7.40;4.10;;;28.00;40.10;;;;;;5063372;28;20044;-60
2021/08/17 04:29:08;;;;;;;3.65;3.13;;;28.00;40.10;;;;;;5050118;28;20123;-59
2021/08/17 04:31:35;;;;;;;2.60;2.40;;;28.00;40.10;;;;;;5059806;28;20087;-60
2021/08/17 04:34:02;;;;;;;3.55;3.20;;;28.00;40.20;;;;;;5058948;28;20036;-61
2021/08/17 04:36:31;;;;;;;4.15;3.70;;;28.00;40.80;;;;;;5063540;28;20131;-60
2021/08/17 04:38:58;;;;;;;3.70;3.40;;;28.00;40.20;;;;;;5049849;28;20466;-60
2021/08/17 04:41:25;;;;;;;5.55;3.08;;;27.90;40.10;;;;;;5066196;28;20049;-60
2021/08/17 04:43:52;;;;;;;2.72;2.53;;;27.90;40.10;;;;;;5067077;28;20375;-60
2021/08/17 04:46:19;;;;;;;2.97;2.78;;;28.00;40.20;;;;;;5062239;28;20140;-60
2021/08/17 04:48:47;;;;;;;3.08;2.60;;;28.00;40.20;;;;;;5061041;28;20037;-60
2021/08/17 04:51:14;;;;;;;3.08;2.67;;;27.90;40.10;;;;;;5052066;28;20076;-60
2021/08/17 04:53:42;;;;;;;3.15;2.95;;;27.90;40.20;;;;;;5065470;28;20032;-60
2021/08/17 04:56:09;;;;;;;4.13;2.95;;;27.90;40.20;;;;;;5067136;28;20075;-60
2021/08/17 04:58:37;;;;;;;3.92;3.20;;;27.90;40.20;;;;;;5064430;28;20037;-60
2021/08/17 05:01:04;;;;;;;6.55;3.63;;;27.90;40.20;;;;;;5061930;28;20048;-60
2021/08/17 05:03:31;;;;;;;3.28;2.70;;;27.90;40.30;;;;;;5061391;28;20056;-60
2021/08/17 05:05:58;;;;;;;4.35;3.45;;;27.90;40.30;;;;;;5062871;28;20045;-60
2021/08/17 05:08:25;;;;;;;4.30;2.90;;;27.90;40.30;;;;;;5066758;28;20130;-60
2021/08/17 05:10:53;;;;;;;2.85;2.65;;;27.90;40.30;;;;;;5066578;28;20049;-60
2021/08/17 05:13:20;;;;;;;4.13;3.15;;;27.90;40.30;;;;;;5061279;28;20136;-59
2021/08/17 05:15:47;;;;;;;3.08;2.78;;;27.90;40.30;;;;;;5061751;28;20123;-59
2021/08/17 05:18:15;;;;;;;5.75;3.38;;;27.90;40.30;;;;;;5064905;28;20159;-60
2021/08/17 05:20:42;;;;;;;3.03;2.78;;;27.90;40.30;;;;;;5050258;28;20057;-60
2021/08/17 05:23:09;;;;;;;2.83;2.63;;;27.90;40.40;;;;;;5066943;28;20094;-60
2021/08/17 05:25:36;;;;;;;3.80;3.28;;;27.90;40.40;;;;;;5051201;28;20047;-60
2021/08/17 05:28:05;;;;;;;3.95;3.17;;;27.90;40.40;;;;;;5057907;28;20068;-60
2021/08/17 05:30:32;;;;;;;3.65;3.00;;;27.80;40.30;;;;;;5061139;28;20513;-60
2021/08/17 05:32:59;;;;;;;3.72;2.67;;;27.90;40.40;;;;;;5062068;28;20597;-59
2021/08/17 05:35:26;;;;;;;2.03;1.90;;;27.90;40.40;;;;;;5066137;28;20037;-60
2021/08/17 05:37:53;;;;;;;2.50;2.38;;;27.90;40.40;;;;;;5066507;28;20049;-59
2021/08/17 05:40:21;;;;;;;3.63;2.90;;;27.90;40.50;;;;;;5054677;28;20684;-60
2021/08/17 05:42:47;;;;;;;3.35;2.58;;;27.90;40.50;;;;;;5059947;28;20304;-59
2021/08/17 05:45:16;;;;;;;2.58;2.47;;;27.80;40.40;;;;;;5060208;28;20119;-60
2021/08/17 05:47:44;;;;;;;3.47;3.17;;;27.80;40.40;;;;;;5065920;28;20125;-61
2021/08/17 05:50:13;;;;;;;3.30;3.10;;;27.90;40.50;;;;;;5052608;28;20060;-62
2021/08/17 05:52:40;;;;;;;3.80;2.40;;;27.80;40.50;;;;;;5064249;28;20068;-61
2021/08/17 05:55:09;;;;;;;3.67;2.78;;;27.80;40.50;;;;;;5060946;28;20032;-58
2021/08/17 05:57:36;;;;;;;3.13;2.92;;;27.80;40.60;;;;;;5060590;28;20082;-60
2021/08/17 06:00:04;;;;;;;3.40;3.13;;;27.80;40.60;;;;;;5065774;28;20039;-60
2021/08/17 06:02:40;;;;;;;2.83;2.60;;;27.80;40.60;;;;;;5034904;28;20464;-59
2021/08/17 06:05:08;;;;;;;3.03;2.83;;;27.80;40.70;;;;;;5066117;28;20068;-59
2021/08/17 06:07:36;;;;;;;4.93;3.47;;;27.90;40.80;;;;;;5062339;28;20044;-61
2021/08/17 06:10:03;;;;;;;5.53;4.20;;;27.90;40.80;;;;;;5060566;28;20567;-60
2021/08/17 06:12:31;;;;;;;5.70;5.22;;;27.90;40.90;;;;;;5059405;28;20037;-61
2021/08/17 06:14:58;;;;;;;5.95;4.47;;;27.80;40.80;;;;;;5065542;28;20239;-60
2021/08/17 06:17:25;;;;;;;8.85;5.75;;;27.90;40.90;;;;;;5050286;28;20438;-61
2021/08/17 06:19:53;;;;;;;5.60;5.10;;;27.80;40.90;;;;;;5065729;28;20596;-60
2021/08/17 06:22:20;;;;;;;7.07;5.43;;;27.90;41.00;;;;;;5061031;28;20573;-59
2021/08/17 06:24:47;;;;;;;13.27;5.35;;;27.90;40.90;;;;;;5060908;28;20032;-58
2021/08/17 06:27:16;;;;;;;8.00;4.65;;;27.90;40.90;;;;;;5063676;28;20526;-59
2021/08/17 06:29:43;;;;;;;9.80;5.25;;;27.80;40.90;;;;;;5049284;28;20562;-59
2021/08/17 06:32:10;;;;;;;4.95;4.45;;;27.90;40.90;;;;;;5065302;28;20425;-59
2021/08/17 06:34:37;;;;;;;6.35;5.43;;;27.90;40.90;;;;;;5063073;28;20040;-59
2021/08/17 06:37:06;;;;;;;6.35;4.82;;;27.90;40.90;;;;;;5060160;28;20549;-56
2021/08/17 06:39:33;;;;;;;5.47;4.35;;;27.90;40.90;;;;;;5056393;28;20051;-59
2021/08/17 06:42:00;;;;;;;5.20;3.72;;;27.90;40.90;;;;;;5048733;28;20124;-60
2021/08/17 06:44:27;;;;;;;5.82;4.00;;;27.90;40.90;;;;;;5065072;28;20090;-60
2021/08/17 06:46:54;;;;;;;5.88;4.57;;;27.90;40.90;;;;;;5050251;28;20131;-60
2021/08/17 06:49:21;;;;;;;4.32;3.95;;;27.90;40.90;;;;;;5058963;28;20048;-60
2021/08/17 06:51:48;;;;;;;5.82;3.75;;;27.90;40.90;;;;;;5059932;28;20052;-59
2021/08/17 06:54:17;;;;;;;4.45;3.50;;;28.00;40.90;;;;;;5059940;28;20044;-60
2021/08/17 06:56:44;;;;;;;2.90;2.47;;;27.90;40.80;;;;;;5062078;28;20053;-59
2021/08/17 06:59:11;;;;;;;6.25;3.17;;;27.90;40.80;;;;;;5065390;28;20084;-61
2021/08/17 07:01:38;;;;;;;5.47;3.80;;;27.90;40.80;;;;;;5053958;28;20049;-58
2021/08/17 07:04:05;;;;;;;4.13;2.88;;;28.00;40.80;;;;;;5052728;28;20041;-61
2021/08/17 07:06:35;;;;;;;4.55;3.05;;;28.00;40.80;;;;;;5053001;28;20041;-61
2021/08/17 07:09:03;;;;;;;3.00;2.67;;;27.90;40.80;;;;;;5052642;28;20047;-60
2021/08/17 07:11:31;;;;;;;6.30;3.15;;;27.90;40.80;;;;;;5063585;28;20033;-61
2021/08/17 07:13:58;;;;;;;4.28;2.75;;;28.00;40.90;;;;;;5049874;28;20092;-60
2021/08/17 07:16:26;;;;;;;4.07;3.45;;;28.00;40.90;;;;;;5048221;28;20048;-61
2021/08/17 07:18:53;;;;;;;6.50;2.50;;;28.00;40.90;;;;;;5047976;28;20047;-61
2021/08/17 07:21:20;;;;;;;4.18;2.53;;;28.00;40.90;;;;;;5052291;28;20044;-61
2021/08/17 07:23:47;;;;;;;3.63;2.55;;;28.00;40.90;;;;;;5047857;28;20055;-61
2021/08/17 07:26:15;;;;;;;3.10;2.42;;;28.00;40.90;;;;;;5064671;28;20631;-61
2021/08/17 07:28:43;;;;;;;2.40;2.20;;;28.00;40.90;;;;;;5030355;28;20507;-60
2021/08/17 07:31:10;;;;;;;4.32;2.50;;;28.00;40.90;;;;;;5047933;28;20052;-61
2021/08/17 07:33:37;;;;;;;2.00;1.70;;;28.00;41.00;;;;;;5051906;28;20103;-61
2021/08/17 07:36:05;;;;;;;4.35;3.10;;;28.00;40.90;;;;;;5047478;28;20615;-61
2021/08/17 07:38:32;;;;;;;3.47;2.63;;;28.00;40.90;;;;;;5032201;28;20068;-61
2021/08/17 07:41:00;;;;;;;5.70;1.80;;;28.00;40.90;;;;;;5058926;28;20803;-61
2021/08/17 07:43:27;;;;;;;4.47;2.20;;;28.00;40.90;;;;;;5058924;28;20045;-61
2021/08/17 07:45:55;;;;;;;2.50;2.30;;;28.00;40.90;;;;;;5059052;28;20056;-61
2021/08/17 07:48:22;;;;;;;2.28;1.70;;;28.00;40.90;;;;;;5058688;28;20037;-60
2021/08/17 07:50:50;;;;;;;3.85;2.38;;;28.00;40.90;;;;;;5061448;28;20110;-60
2021/08/17 07:53:17;;;;;;;3.83;2.35;;;28.00;40.90;;;;;;5047737;28;20045;-61
2021/08/17 07:55:44;;;;;;;3.05;2.35;;;28.00;40.90;;;;;;5049319;28;20040;-61
2021/08/17 07:58:11;;;;;;;3.50;2.85;;;28.00;40.90;;;;;;5056646;28;20098;-61
2021/08/17 08:00:38;;;;;;;3.78;2.28;;;28.10;40.90;;;;;;5058945;28;20131;-61
2021/08/17 08:03:06;;;;;;;4.28;2.63;;;28.00;40.90;;;;;;5047251;28;20040;-61
2021/08/17 08:05:34;;;;;;;3.92;2.63;;;28.00;40.80;;;;;;5063248;28;20041;-61
2021/08/17 08:08:00;;;;;;;7.57;2.83;;;28.00;40.90;;;;;;5064777;28;20048;-59
2021/08/17 08:10:28;;;;;;;3.22;2.47;;;28.00;40.90;;;;;;5059147;28;20114;-60
2021/08/17 08:12:55;;;;;;;5.90;2.58;;;28.00;40.80;;;;;;5056971;28;20425;-61
2021/08/17 08:15:22;;;;;;;4.78;2.67;;;28.00;40.90;;;;;;5060811;28;20517;-61
2021/08/17 08:17:49;;;;;;;4.65;2.28;;;28.00;40.80;;;;;;5047353;28;20044;-61
2021/08/17 08:20:19;;;;;;;5.43;2.38;;;28.10;40.90;;;;;;5063640;28;20127;-61
2021/08/17 08:22:47;;;;;;;3.85;2.30;;;28.00;40.80;;;;;;5051542;28;20580;-62
2021/08/17 08:25:14;;;;;;;5.82;2.78;;;28.00;40.80;;;;;;5056609;28;20052;-60
2021/08/17 08:27:41;;;;;;;2.55;1.75;;;28.00;40.90;;;;;;5058718;28;20049;-61
2021/08/17 08:30:10;;;;;;;6.97;2.15;;;28.00;40.80;;;;;;5058685;28;20041;-60
2021/08/17 08:32:37;;;;;;;3.10;2.50;;;28.10;40.90;;;;;;5047173;28;20522;-61
2021/08/17 08:35:05;;;;;;;3.88;1.50;;;28.10;40.90;;;;;;5064307;28;20051;-59
2021/08/17 08:37:34;;;;;;;4.28;1.58;;;28.10;40.90;;;;;;5059752;28;20044;-59
2021/08/17 08:40:01;;;;;;;3.75;2.20;;;28.10;40.90;;;;;;5058340;28;20549;-60
2021/08/17 08:42:29;;;;;;;5.05;1.50;;;28.10;41.00;;;;;;5057243;28;20243;-59
2021/08/17 08:44:56;;;;;;;2.17;1.27;;;28.10;40.90;;;;;;5059837;28;20089;-59
2021/08/17 08:47:23;;;;;;;1.33;1.30;;;28.10;40.90;;;;;;5063293;28;20053;-59
2021/08/17 08:49:52;;;;;;;3.70;1.45;;;28.10;41.00;;;;;;5061411;28;20133;-60
2021/08/17 08:52:20;;;;;;;3.30;1.55;;;28.10;40.90;;;;;;5052243;28;20043;-60
2021/08/17 08:54:49;;;;;;;2.65;1.42;;;28.10;40.90;;;;;;5051371;28;20033;-59
2021/08/17 08:57:16;;;;;;;1.33;1.23;;;28.10;40.90;;;;;;5051397;28;20083;-60
2021/08/17 08:59:43;;;;;;;1.60;0.95;;;28.10;40.90;;;;;;5048584;28;20051;-59
2021/08/17 09:02:11;;;;;;;2.33;1.63;;;28.10;40.90;;;;;;5050168;28;20067;-60
2021/08/17 09:04:39;;;;;;;2.78;1.95;;;28.10;40.90;;;;;;5052159;28;20056;-60
2021/08/17 09:07:07;;;;;;;5.10;1.52;;;28.10;40.90;;;;;;5051195;28;20100;-60
2021/08/17 09:09:34;;;;;;;2.25;1.50;;;28.10;40.90;;;;;;5050679;28;20525;-60
2021/08/17 09:12:03;;;;;;;3.58;1.17;;;28.10;40.90;;;;;;5057625;28;20041;-60
2021/08/17 09:14:32;;;;;;;3.25;1.20;;;28.20;41.00;;;;;;5062930;28;20554;-59
2021/08/17 09:17:01;;;;;;;2.55;1.02;;;28.10;40.90;;;;;;5060055;28;20123;-60
2021/08/17 09:19:34;;;;;;;2.85;0.90;;;28.10;40.90;;;;;;5058339;28;20575;-60
2021/08/17 09:22:05;;;;;;;5.03;1.17;;;28.20;41.00;;;;;;5057777;28;20111;-59
2021/08/17 09:24:36;;;;;;;2.47;1.20;;;28.20;41.00;;;;;;5053913;28;20046;-60
2021/08/17 09:27:07;;;;;;;2.17;1.25;;;28.20;41.00;;;;;;5062282;28;20063;-59
2021/08/17 09:29:36;;;;;;;3.50;1.45;;;28.20;41.00;;;;;;5034999;28;20131;-59
2021/08/17 09:32:13;;;;;;;1.35;1.17;;;28.10;41.00;;;;;;5067003;28;20044;-60
2021/08/17 09:34:42;;;;;;;2.40;1.10;;;28.20;41.00;;;;;;5064118;28;20048;-59
2021/08/17 09:37:11;;;;;;;1.98;1.30;;;28.10;41.00;;;;;;5052672;28;20037;-59
2021/08/17 09:39:41;;;;;;;2.33;0.85;;;28.20;41.00;;;;;;5054855;28;20505;-59
2021/08/17 09:42:31;;;;;;;1.50;1.35;;;28.20;41.00;;;;;;5060505;28;20518;-60
2021/08/17 09:45:14;;;;;;;1.60;0.98;;;28.20;40.90;;;;;;5059345;28;20061;-60
2021/08/17 09:47:43;;;;;;;1.90;1.17;;;28.20;41.00;;;;;;5036906;28;20068;-58
2021/08/17 09:50:22;;;;;;;2.17;0.85;;;28.20;41.10;;;;;;5052650;28;20052;-59
2021/08/17 09:52:51;;;;;;;3.72;1.00;;;28.20;41.00;;;;;;5054663;28;20114;-60
2021/08/17 09:55:19;;;;;;;1.95;1.10;;;28.20;41.00;;;;;;5059687;28;20041;-60
2021/08/17 09:57:48;;;;;;;1.25;0.70;;;28.20;41.00;;;;;;5059945;28;20047;-60
2021/08/17 10:00:17;;;;;;;1.48;0.60;;;28.20;41.00;;;;;;5051244;28;20127;-60
2021/08/17 10:02:45;;;;;;;1.35;0.88;;;28.20;41.00;;;;;;5063614;28;20071;-60
2021/08/17 10:05:14;;;;;;;2.63;0.85;;;28.20;41.00;;;;;;5066314;28;20509;-59
2021/08/17 10:07:41;;;;;;;2.50;1.10;;;28.20;41.00;;;;;;5055390;28;20539;-60
2021/08/17 10:10:11;;;;;;;1.13;1.00;;;28.20;40.90;;;;;;5053772;28;20818;-59
2021/08/17 10:12:38;;;;;;;3.08;0.55;;;28.30;41.00;;;;;;5053994;28;20049;-60
2021/08/17 10:15:09;;;;;;;1.23;0.43;;;28.30;40.90;;;;;;5063656;28;20149;-60
2021/08/17 10:17:36;;;;;;;1.73;0.77;;;28.30;40.90;;;;;;5049396;28;20052;-59
2021/08/17 10:20:04;;;;;;;1.30;0.93;;;28.30;40.90;;;;;;5064888;28;20094;-61
2021/08/17 10:23:01;;;;;;;2.33;1.05;;;28.30;40.80;;;;;;5052905;28;20549;-61
2021/08/17 10:25:42;;;;;;;1.73;0.57;;;28.30;40.80;;;;;;5049861;28;20063;-61
2021/08/17 10:28:24;;;;;;;0.70;0.70;;;28.30;40.70;;;;;;5055636;28;20416;-60
2021/08/17 10:30:52;;;;;;;3.67;0.60;;;28.40;40.70;;;;;;5060381;28;20033;-60
2021/08/17 10:33:38;;;;;;;2.13;0.40;;;28.30;40.70;;;;;;5060407;28;20399;-60
2021/08/17 10:36:05;;;;;;;2.67;0.68;;;28.40;40.70;;;;;;5062343;28;20532;-59
2021/08/17 10:38:51;;;;;;;1.15;1.05;;;28.40;40.70;;;;;;5049103;28;20132;-60
2021/08/17 10:41:27;;;;;;;1.87;0.57;;;28.40;40.60;;;;;;5063799;28;20040;-60
2021/08/17 10:44:16;;;;;;;1.25;1.15;;;28.40;40.60;;;;;;5065595;28;20045;-60
2021/08/17 10:46:56;;;;;;;0.63;0.28;;;28.40;40.60;;;;;;5052747;28;20048;-60
2021/08/17 10:49:36;;;;;;;2.67;0.77;;;28.40;40.60;;;;;;5059272;28;20045;-60
2021/08/17 10:52:05;;;;;;;2.28;0.47;;;28.40;41.20;;;;;;5056350;28;20123;-61
2021/08/17 10:54:33;;;;;;;1.98;0.63;;;28.40;41.20;;;;;;5052134;28;20468;-60
2021/08/17 10:57:18;;;;;;;0.50;0.43;;;28.40;40.60;;;;;;5052644;28;20052;-60
2021/08/17 10:59:46;;;;;;;3.13;1.27;;;28.40;40.50;;;;;;5034689;28;20124;-60
2021/08/17 11:02:15;;;;;;;1.52;0.63;;;28.40;40.50;;;;;;5054311;28;20048;-61
2021/08/17 11:04:44;;;;;;;3.78;0.73;;;28.40;40.60;;;;;;5052026;28;20124;-60
2021/08/17 11:07:26;;;;;;;2.83;1.27;;;28.40;40.50;;;;;;5052735;28;20047;-60
2021/08/17 11:09:54;;;;;;;1.42;0.52;;;28.40;40.50;;;;;;5054498;28;20548;-60
2021/08/17 11:12:21;;;;;;;1.25;0.65;;;28.40;40.50;;;;;;5058366;28;20506;-60
2021/08/17 11:14:49;;;;;;;1.45;0.70;;;28.40;40.50;;;;;;5064272;28;20037;-59
2021/08/17 11:17:19;;;;;;;2.17;0.90;;;28.40;40.50;;;;;;5050152;28;20438;-60
2021/08/17 11:19:48;;;;;;;1.50;0.50;;;28.40;40.50;;;;;;5052405;28;20073;-60
2021/08/17 11:22:18;;;;;;;1.02;0.70;;;28.40;40.50;;;;;;5057471;28;20044;-60
2021/08/17 11:24:47;;;;;;;2.30;0.82;;;28.40;40.50;;;;;;5058129;28;20605;-60
2021/08/17 11:27:17;;;;;;;0.98;0.60;;;28.40;40.40;;;;;;5049127;28;20041;-59
2021/08/17 11:29:47;;;;;;;3.03;0.60;;;28.40;40.40;;;;;;5061597;28;20041;-60
2021/08/17 11:32:24;;;;;;;2.08;1.05;;;28.40;40.40;;;;;;5050237;28;20041;-60
2021/08/17 11:34:53;;;;;;;2.05;1.00;;;28.40;40.40;;;;;;5063845;28;20119;-60
2021/08/17 11:37:20;;;;;;;1.08;0.93;;;28.40;40.40;;;;;;5047937;28;20044;-60
2021/08/17 11:39:49;;;;;;;0.88;0.70;;;28.50;40.50;;;;;;5056007;28;20048;-60
2021/08/17 11:42:19;;;;;;;2.47;0.60;;;28.50;40.40;;;;;;5046525;28;20051;-60
2021/08/17 11:44:48;;;;;;;3.30;1.10;;;28.50;40.40;;;;;;5061455;28;20524;-60
2021/08/17 11:47:17;;;;;;;1.38;1.00;;;28.50;40.30;;;;;;5064537;28;20053;-59
2021/08/17 11:49:46;;;;;;;2.55;0.82;;;28.50;40.30;;;;;;5067257;28;20127;-60
2021/08/17 11:52:17;;;;;;;1.38;1.10;;;28.50;40.30;;;;;;5051848;28;20045;-61
2021/08/17 11:54:51;;;;;;;1.15;0.80;;;28.60;40.30;;;;;;5053488;28;20040;-59
2021/08/17 11:57:21;;;;;;;1.02;0.63;;;28.60;40.30;;;;;;5059222;28;20043;-60
2021/08/17 11:59:50;;;;;;;0.63;0.60;;;28.60;40.30;;;;;;5063577;28;20568;-60
2021/08/17 12:02:23;;;;;;;1.02;0.65;;;28.60;40.20;;;;;;5049579;28;20498;-60
2021/08/17 12:05:02;;;;;;;2.50;0.57;;;28.60;40.90;;;;;;5053279;28;20052;-60
2021/08/17 12:07:32;;;;;;;1.10;0.45;;;28.60;40.20;;;;;;5059703;28;20056;-60
2021/08/17 12:10:06;;;;;;;1.05;1.00;;;28.50;40.10;;;;;;5051605;28;20115;-59
2021/08/17 12:12:57;;;;;;;1.85;0.98;;;28.50;40.10;;;;;;5052253;28;20049;-60
2021/08/17 12:15:33;;;;;;;2.83;0.50;;;28.50;40.10;;;;;;5051797;28;20048;-58
2021/08/17 12:18:03;;;;;;;1.08;0.38;;;28.50;40.10;;;;;;5047701;28;20135;-60
2021/08/17 12:20:31;;;;;;;0.40;0.38;;;28.50;40.20;;;;;;5047497;28;20041;-59
2021/08/17 12:23:00;;;;;;;1.98;0.70;;;28.50;40.20;;;;;;5019794;28;20073;-60
2021/08/17 12:25:29;;;;;;;0.98;0.50;;;28.50;40.10;;;;;;5011746;28;20041;-59
2021/08/17 12:27:59;;;;;;;0.80;0.57;;;28.50;40.10;;;;;;5016410;28;20045;-60
2021/08/17 12:30:27;;;;;;;0.73;0.45;;;28.50;40.10;;;;;;5019955;28;20515;-60
2021/08/17 12:32:55;;;;;;;1.15;0.57;;;28.50;40.10;;;;;;5008751;28;20598;-60
2021/08/17 12:35:27;;;;;;;0.73;0.38;;;28.50;40.10;;;;;;5026315;28;20096;-60
2021/08/17 12:37:54;;;;;;;3.55;0.68;;;28.50;40.10;;;;;;5009473;28;20053;-60
2021/08/17 12:40:22;;;;;;;0.77;0.50;;;28.50;40.10;;;;;;5011164;28;20048;-60
2021/08/17 12:42:49;;;;;;;2.08;0.60;;;28.50;40.00;;;;;;5012483;28;20042;-60
2021/08/17 12:45:30;;;;;;;1.90;0.47;;;28.50;40.00;;;;;;5011633;28;20125;-60
2021/08/17 12:47:59;;;;;;;1.75;0.30;;;28.60;40.00;;;;;;5011735;28;20049;-58
2021/08/17 12:50:36;;;;;;;0.73;0.73;;;28.50;39.90;;;;;;5009508;28;20527;-60
2021/08/17 12:53:04;;;;;;;0.88;0.52;;;28.50;39.90;;;;;;5024845;28;20049;-59
2021/08/17 12:55:32;;;;;;;0.63;0.40;;;28.50;40.00;;;;;;5022849;28;20646;-59